Minneapolis, Minnesota
Current Conditions -  °F | °C
As of 5:53 AM on Thursday 23 Oct 2014 (Local Time) from KMSP Reporting Station
Overcast Overcast  
Wind Chill: 52°   Ceiling: 1200
Heat Index: 52°   Visibility: 10mi
Dew Point: 49°   Wind: 7mph
Humidity: 89%   Direction: 170°S
Pressure: 29.99"   Gusts: NA
Location:  44.98°N, 93.26°W
Report Text: KMSP 231053Z 17006KT 10SM OVC012 11/09 A2999 RMK AO2 SLP159 T01110094
Loading
Personal Weather Stations






























Interactive Weather Map New forecast layout! Learn more

10-Day Weather Forecast

Advertisements
Track Severe Weather on mobile